Boyle, Canada
Current Conditions -  °F | °C
As of 11:00 AM on Saturday 25 Oct 2014 (Local Time) from CYED Reporting Station
Clear Clear  
Wind Chill: 35°   Ceiling: Unl
Heat Index: 39°   Visibility: 9mi
Dew Point: 25°   Wind: 6mph
Humidity: 56%   Direction: 90°E
Pressure: 29.94"   Gusts: NA
Location:  54.59°N, 112.81°W
Report Text: CYED 251700Z AUTO 09005KT 9SM CLR 04/M04 A2994 RMK SLP165
Loading
Personal Weather Stations






























Interactive Weather Map
Tropical Storm Tracking
New forecast layout! Learn more

10-Day Weather Forecast

Advertisements
Track Severe Weather on mobile